Time;durP1;ratioP1;P1;durP2;ratioP2;P2;SDS_P1;SDS_P2;PMS_P1;PMS_P2;Temp;Humidity;BMP_temperature;BMP_pressure;BME280_temperature;BME280_humidity;BME280_pressure;Samples;Min_cycle;Max_cycle;Signal;HPM_P1;HPM_P2
2022/02/14 00:00:10;;;;;;;;;90.67;68.00;;;;;0.92;78.55;100251.25;6311133;20;3660675;-43
2022/02/14 00:02:41;;;;;;;;;88.67;65.67;;;;;0.71;79.53;100242.72;6312043;20;3656934;-41
2022/02/14 00:05:13;;;;;;;;;96.67;69.33;;;;;0.62;79.53;100241.03;6310061;20;3659593;-41
2022/02/14 00:07:42;;;;;;;;;87.67;66.33;;;;;0.69;79.28;100241.84;6315738;20;3648132;-42
2022/02/14 00:10:13;;;;;;;;;94.67;69.33;;;;;0.35;80.63;100238.72;6315967;20;3643369;-41
2022/02/14 00:12:43;;;;;;;;;89.67;65.67;;;;;0.57;80.36;100234.94;6317725;20;3662796;-42
2022/02/14 00:15:13;;;;;;;;;92.33;70.00;;;;;0.29;80.38;100228.22;6316643;20;3657510;-41
2022/02/14 00:17:42;;;;;;;;;92.00;69.00;;;;;0.58;79.71;100231.41;6314677;20;3657534;-41
2022/02/14 00:20:12;;;;;;;;;96.00;70.67;;;;;0.60;79.13;100224.31;6315569;20;3658586;-43
2022/02/14 00:22:42;;;;;;;;;99.67;70.33;;;;;0.16;80.14;100228.38;6314155;20;3685725;-41
2022/02/14 00:25:13;;;;;;;;;100.00;72.00;;;;;0.36;79.71;100219.34;6314540;20;3675344;-41
2022/02/14 00:27:42;;;;;;;;;92.50;71.00;;;;;0.04;81.38;100212.66;6281016;20;2892991;-41
2022/02/14 00:30:12;;;;;;;;;101.33;75.00;;;;;0.41;80.12;100217.53;6284049;20;3672199;-42
2022/02/14 00:32:42;;;;;;;;;99.00;72.67;;;;;0.29;79.37;100217.66;6313687;20;3655491;-41
2022/02/14 00:35:13;;;;;;;;;97.67;73.00;;;;;-0.02;81.00;100215.34;6315470;20;3656474;-40
2022/02/14 00:37:43;;;;;;;;;96.00;73.33;;;;;-0.03;81.53;100205.66;6317018;20;3638894;-41
2022/02/14 00:40:13;;;;;;;;;94.33;70.67;;;;;0.06;81.06;100210.88;6316086;20;2901385;-41
2022/02/14 00:42:43;;;;;;;;;100.33;73.67;;;;;0.15;81.23;100202.84;6315544;20;3683597;-42
2022/02/14 00:45:13;;;;;;;;;96.00;66.00;;;;;-0.25;81.23;100210.28;6314012;20;2900328;-41
2022/02/14 00:47:42;;;;;;;;;95.67;72.00;;;;;-0.16;81.32;100201.41;6316526;20;3639986;-41
2022/02/14 00:50:13;;;;;;;;;91.00;69.00;;;;;-0.19;81.52;100201.44;6316648;20;3658700;-42
2022/02/14 00:52:42;;;;;;;;;70.00;56.00;;;;;0.13;80.73;100199.38;6313898;20;2877328;-42
2022/02/14 00:55:15;;;;;;;;;77.67;60.33;;;;;-0.16;81.09;100198.75;6282707;20;2877548;-42
2022/02/14 00:57:47;;;;;;;;;76.00;58.50;;;;;0.01;80.80;100188.94;6315696;20;2881515;-41
2022/02/14 01:00:19;;;;;;;;;79.67;56.00;;;;;-0.01;79.92;100193.34;6284450;20;2890926;-41
2022/02/14 01:02:49;;;;;;;;;79.67;53.67;;;;;0.08;80.32;100192.34;6316924;20;2894022;-42
2022/02/14 01:05:17;;;;;;;;;63.50;50.50;;;;;-0.27;81.93;100191.81;6308844;20;2489860;-42
2022/02/14 01:07:45;;;;;;;;;64.00;49.50;;;;;0.13;80.67;100193.19;6279319;20;2494020;-42
2022/02/14 01:10:14;;;;;;;;;68.00;52.00;;;;;-0.30;81.42;100191.84;6279214;20;2499223;-42
2022/02/14 01:12:44;;;;;;;;;74.67;57.33;;;;;-0.42;81.42;100186.72;6284813;20;2884716;-41
2022/02/14 01:15:13;;;;;;;;;81.67;59.00;;;;;-0.40;82.86;100176.13;6314611;20;3651280;-42
2022/02/14 01:17:43;;;;;;;;;77.67;59.00;;;;;-0.37;81.77;100174.34;6312658;20;2886767;-41
2022/02/14 01:20:13;;;;;;;;;76.00;60.00;;;;;-0.76;83.03;100178.22;6310957;20;2500274;-43
2022/02/14 01:22:42;;;;;;;;;68.50;52.00;;;;;-0.64;82.19;100169.31;6281553;20;2494050;-42
2022/02/14 01:25:11;;;;;;;;;79.00;60.00;;;;;-0.60;82.65;100165.78;6279056;20;2500255;-45
2022/02/14 01:27:41;;;;;;;;;77.50;59.00;;;;;-0.52;82.15;100158.66;6284721;20;2875275;-43
2022/02/14 01:30:11;;;;;;;;;81.00;60.50;;;;;-0.54;82.65;100155.16;6277884;20;2500736;-43
2022/02/14 01:32:40;;;;;;;;;76.67;61.00;;;;;-0.38;81.93;100151.47;6284262;20;2882622;-44
2022/02/14 01:35:09;;;;;;;;;75.50;55.50;;;;;-0.68;82.08;100148.25;6313883;20;2874231;-42
2022/02/14 01:37:39;;;;;;;;;45.00;25.00;;;;;-0.37;82.13;100157.63;6282574;20;2877334;-42
2022/02/14 01:40:12;;;;;;;;;75.00;58.00;;;;;-0.35;81.19;100146.19;6284460;20;2885714;-42
2022/02/14 01:42:42;;;;;;;;;80.00;61.00;;;;;-0.54;81.98;100145.47;6284116;20;2889959;-42
2022/02/14 01:45:11;;;;;;;;;65.00;51.00;;;;;-0.23;80.75;100140.78;6311600;20;2853456;-42
2022/02/14 01:47:41;;;;;;;;;73.00;56.50;;;;;-0.13;79.70;100143.31;6281206;20;2872178;-45
2022/02/14 01:50:14;;;;;;;;;72.00;55.00;;;;;-0.63;81.09;100128.84;6283092;20;2880504;-44
2022/02/14 01:52:44;;;;;;;;;76.00;57.00;;;;;-0.59;81.21;100127.94;6282926;20;2890895;-45
2022/02/14 01:55:16;;;;;;;;;87.33;57.67;;;;;-0.91;82.51;100121.19;6281232;20;2902342;-42
2022/02/14 01:57:44;;;;;;;;;69.50;57.00;;;;;-1.01;82.58;100119.50;6314994;20;2859745;-44
2022/02/14 02:00:17;;;;;;;;;73.00;53.00;;;;;-1.19;83.75;100123.16;6279352;20;2499247;-41
2022/02/14 02:02:46;;;;;;;;;71.50;56.00;;;;;-1.16;83.74;100113.47;6280415;20;2871089;-42
2022/02/14 02:05:14;;;;;;;;;68.50;52.50;;;;;-1.31;83.48;100110.09;6278272;20;2493001;-43
2022/02/14 02:07:42;;;;;;;;;68.00;52.00;;;;;-1.24;83.40;100103.88;6278195;20;2491948;-45
2022/02/14 02:10:12;;;;;;;;;89.67;65.00;;;;;-1.15;83.89;100109.09;6280328;20;3654381;-42
2022/02/14 02:12:56;;;;;;;;;88.33;64.33;;;;;-1.04;82.23;100107.22;6314865;20;2894550;-46
2022/02/14 02:15:25;;;;;;;;;79.33;57.33;;;;;-1.27;83.38;100099.50;6311523;20;2894129;-45
2022/02/14 02:17:54;;;;;;;;;75.50;58.50;;;;;-1.07;84.07;100101.13;6314126;20;2875262;-44
2022/02/14 02:20:23;;;;;;;;;78.50;61.00;;;;;-1.20;83.66;100101.19;6281398;20;2887744;-42
2022/02/14 02:22:53;;;;;;;;;93.00;67.00;;;;;-1.32;83.92;100085.47;6281884;20;3656493;-43
2022/02/14 02:25:22;;;;;;;;;88.33;64.33;;;;;-1.39;84.82;100089.06;6310086;20;2903626;-42
2022/02/14 02:27:52;;;;;;;;;86.33;63.00;;;;;-1.08;83.30;100088.81;6315238;20;3647175;-42
2022/02/14 02:30:22;;;;;;;;;86.67;62.67;;;;;-1.18;83.29;100083.63;6309166;20;3656622;-46
2022/02/14 02:32:53;;;;;;;;;84.67;61.33;;;;;-1.34;83.70;100082.00;6314065;20;2887805;-43
2022/02/14 02:35:22;;;;;;;;;88.33;66.00;;;;;-1.57;83.85;100071.63;6312005;20;3639803;-42
2022/02/14 02:37:52;;;;;;;;;89.33;65.33;;;;;-1.64;83.44;100077.78;6313449;20;2898342;-45
2022/02/14 02:40:21;;;;;;;;;84.50;65.00;;;;;-1.44;84.06;100075.03;6314051;20;2887795;-43
2022/02/14 02:42:49;;;;;;;;;84.50;62.50;;;;;-1.56;83.68;100076.84;6277045;20;2500289;-44
2022/02/14 02:45:17;;;;;;;;;62.50;51.00;;;;;-1.69;83.64;100064.66;6279898;20;2867989;-44
2022/02/14 02:47:47;;;;;;;;;84.33;61.00;;;;;-1.76;83.57;100070.84;6282391;20;2896086;-42
2022/02/14 02:50:17;;;;;;;;;69.00;53.00;;;;;-1.44;83.23;100061.88;6312630;20;2871082;-43
2022/02/14 02:52:45;;;;;;;;;76.50;58.50;;;;;-1.87;82.91;100065.66;6275298;20;2503809;-41
2022/02/14 02:55:15;;;;;;;;;87.67;63.67;;;;;-2.06;85.33;100059.56;6277498;20;2901432;-43
2022/02/14 02:57:43;;;;;;;;;76.50;60.00;;;;;-1.98;84.84;100063.03;6307840;20;2500258;-42
2022/02/14 03:00:14;;;;;;;;;89.33;66.67;;;;;-1.85;83.81;100068.25;6279361;20;2890991;-43
2022/02/14 03:02:43;;;;;;;;;84.00;61.00;;;;;-1.69;83.66;100062.00;6312519;20;2887754;-42
2022/02/14 03:05:11;;;;;;;;;82.00;60.00;;;;;-1.97;84.79;100058.69;6276083;20;2500246;-42
2022/02/14 03:07:40;;;;;;;;;81.50;61.00;;;;;-2.19;85.79;100063.13;6274826;20;2877521;-42
2022/02/14 03:10:08;;;;;;;;;83.00;64.00;;;;;-2.04;85.26;100062.22;6272942;20;2500610;-43
2022/02/14 03:12:36;;;;;;;;;74.00;56.00;;;;;-1.69;83.96;100063.78;6275230;20;2499236;-43
2022/02/14 03:15:07;;;;;;;;;84.33;57.33;;;;;-1.86;83.71;100069.16;6275928;20;3650196;-42
2022/02/14 03:17:35;;;;;;;;;79.00;54.50;;;;;-1.96;84.62;100059.53;6306863;20;2499715;-41
2022/02/14 03:20:04;;;;;;;;;78.00;60.00;;;;;-2.13;84.86;100057.88;6275494;20;2496197;-41
2022/02/14 03:22:33;;;;;;;;;82.00;60.67;;;;;-2.05;85.43;100056.06;6280495;20;2896088;-42
2022/02/14 03:25:03;;;;;;;;;82.00;60.50;;;;;-2.14;84.71;100060.50;6308713;20;2878843;-41
2022/02/14 03:27:31;;;;;;;;;81.50;60.50;;;;;-2.03;83.56;100058.69;6275395;20;2500246;-42
2022/02/14 03:30:01;;;;;;;;;92.33;71.33;;;;;-2.05;83.88;100056.06;6280962;20;2894035;-41
2022/02/14 03:32:30;;;;;;;;;89.50;66.00;;;;;-2.02;83.14;100057.81;6309192;20;2891943;-41
2022/02/14 03:35:00;;;;;;;;;92.00;67.67;;;;;-1.99;83.78;100049.91;6279323;20;3644010;-42
2022/02/14 03:37:28;;;;;;;;;77.00;60.00;;;;;-2.17;84.44;100050.84;6308863;20;2500237;-43
2022/02/14 03:39:57;;;;;;;;;94.67;66.33;;;;;-2.24;84.29;100049.13;6280823;20;3658578;-42
2022/02/14 03:42:27;;;;;;;;;89.33;63.33;;;;;-2.11;84.38;100045.56;6316170;20;2899622;-43
2022/02/14 03:44:58;;;;;;;;;91.00;63.00;;;;;-2.04;83.43;100044.66;6316650;20;2912876;-42
2022/02/14 03:47:26;;;;;;;;;81.00;63.00;;;;;-2.08;83.35;100039.41;6312233;20;2500269;-42
2022/02/14 03:49:55;;;;;;;;;82.33;64.00;;;;;-2.15;83.82;100045.59;6284731;20;3621223;-41
2022/02/14 03:52:24;;;;;;;;;78.50;60.00;;;;;-2.31;84.52;100042.16;6287425;20;2870071;-42
2022/02/14 03:54:53;;;;;;;;;84.00;61.00;;;;;-2.53;85.05;100031.69;6284086;20;2896091;-41
2022/02/14 03:57:23;;;;;;;;;77.33;52.67;;;;;-2.33;84.51;100038.66;6316099;20;2894081;-41
2022/02/14 03:59:52;;;;;;;;;76.00;58.00;;;;;-2.49;84.30;100038.69;6317197;20;2880513;-41
2022/02/14 04:02:20;;;;;;;;;72.50;56.00;;;;;-2.60;84.83;100039.63;6282773;20;2495094;-42
2022/02/14 04:04:47;;;;;;;;;84.50;57.50;;;;;-2.34;84.25;100036.88;6281103;20;2487975;-41
2022/02/14 04:07:16;;;;;;;;;78.50;57.00;;;;;-2.85;84.82;100028.28;6283836;20;2873166;-42
2022/02/14 04:09:45;;;;;;;;;72.00;57.50;;;;;-2.59;84.59;100026.47;6283415;20;2861708;-42
2022/02/14 04:12:13;;;;;;;;;75.00;58.00;;;;;-2.84;85.02;100024.75;6280186;20;2493376;-43
2022/02/14 04:14:42;;;;;;;;;73.00;57.00;;;;;-2.53;84.12;100025.56;6280010;20;2500399;-42
2022/02/14 04:17:10;;;;;;;;;78.50;59.00;;;;;-2.74;84.88;100023.88;6283245;20;2876326;-41
2022/02/14 04:19:39;;;;;;;;;84.50;63.50;;;;;-2.81;84.17;100024.78;6280218;20;2499197;-42
2022/02/14 04:22:07;;;;;;;;;79.00;61.00;;;;;-3.06;84.07;100023.91;6280972;20;2876409;-43
2022/02/14 04:24:36;;;;;;;;;78.50;63.00;;;;;-2.66;83.10;100017.72;6283338;20;2883630;-42
2022/02/14 04:27:05;;;;;;;;;84.00;66.00;;;;;-2.94;83.96;100024.78;6282601;20;2882697;-42
2022/02/14 04:29:34;;;;;;;;;113.67;83.00;;;;;-3.04;84.38;100027.44;6283517;20;3682512;-42
2022/02/14 04:32:06;;;;;;;;;97.00;70.00;;;;;-2.81;84.75;100023.03;6283070;20;3646141;-42
2022/02/14 04:34:37;;;;;;;;;117.33;78.33;;;;;-2.73;83.95;100028.25;6313065;20;3684602;-41
2022/02/14 04:37:06;;;;;;;;;92.33;66.67;;;;;-3.06;84.99;100019.53;6281212;20;2904549;-42
2022/02/14 04:39:36;;;;;;;;;105.00;73.67;;;;;-2.97;85.24;100018.66;6314042;20;3690990;-40
2022/02/14 04:42:06;;;;;;;;;95.33;72.67;;;;;-2.93;85.32;100018.63;6314463;20;2892066;-40
2022/02/14 04:44:36;;;;;;;;;100.00;73.00;;;;;-3.00;85.26;100014.31;6312798;20;3671082;-39
2022/02/14 04:47:06;;;;;;;;;102.67;70.67;;;;;-2.93;85.25;100008.13;6312057;20;3672092;-42
2022/02/14 04:49:37;;;;;;;;;98.33;70.67;;;;;-2.73;83.72;100012.50;6312209;20;3665928;-42
2022/02/14 04:52:07;;;;;;;;;94.00;66.67;;;;;-2.94;84.79;100003.78;6309950;20;3666908;-42
2022/02/14 04:54:37;;;;;;;;;78.00;60.00;;;;;-3.15;84.82;99993.31;6306609;20;2502343;-42
2022/02/14 04:57:06;;;;;;;;;87.60;66.40;;;;;-3.21;85.11;100002.06;6281897;20;3648620;-42
2022/02/14 04:59:35;;;;;;;;;94.80;67.80;;;;;-2.73;84.40;100013.34;6280509;20;3659627;-42
2022/02/14 05:02:04;;;;;;;;;102.33;71.33;;;;;-2.82;83.45;100008.09;6280766;20;3667080;-41
2022/02/14 05:04:34;;;;;;;;;114.67;81.00;;;;;-3.19;85.61;100002.91;6310677;20;3669998;-43
2022/02/14 05:07:04;;;;;;;;;109.67;76.00;;;;;-2.95;84.67;100007.28;6313980;20;3679481;-43
2022/02/14 05:09:34;;;;;;;;;92.00;65.33;;;;;-3.19;84.85;100005.53;6175419;20;3658596;-43
2022/02/14 05:12:06;;;;;;;;;94.67;69.67;;;;;-2.90;84.11;100010.78;6315506;20;3647154;-46
2022/02/14 05:14:35;;;;;;;;;96.00;69.00;;;;;-2.91;84.00;100006.38;6314288;20;2853400;-42
2022/02/14 05:17:07;;;;;;;;;86.67;64.33;;;;;-2.83;83.48;100003.75;6283344;20;2892092;-43
2022/02/14 05:19:34;;;;;;;;;83.00;63.50;;;;;-2.90;83.75;100004.63;6309951;20;2500411;-42
2022/02/14 05:22:03;;;;;;;;;79.00;57.00;;;;;-2.82;83.75;100008.09;6279324;20;2502353;-45
2022/02/14 05:24:33;;;;;;;;;93.33;69.00;;;;;-3.15;85.66;100003.81;6282015;20;2902503;-43
2022/02/14 05:27:03;;;;;;;;;90.00;63.33;;;;;-2.92;84.76;100006.41;6314230;20;2898297;-42
2022/02/14 05:29:32;;;;;;;;;93.00;66.00;;;;;-2.94;84.15;100019.53;6312075;20;2896203;-42
2022/02/14 05:32:00;;;;;;;;;88.50;63.50;;;;;-2.85;85.02;100013.38;6310563;20;2502375;-42
2022/02/14 05:34:30;;;;;;;;;92.60;71.00;;;;;-2.68;84.69;100021.25;6278577;20;3649254;-42
2022/02/14 05:36:59;;;;;;;;;87.33;62.50;;;;;-2.98;85.54;100017.78;6279294;20;3654430;-42
2022/02/14 05:39:29;;;;;;;;;93.00;66.33;;;;;-3.10;85.08;100015.19;6313964;20;3654388;-41
2022/02/14 05:41:59;;;;;;;;;93.67;69.33;;;;;-3.36;85.44;100023.06;6314099;20;2901417;-41
2022/02/14 05:44:28;;;;;;;;;92.00;66.00;;;;;-3.28;85.11;100025.69;6308770;20;3659583;-48
2022/02/14 05:46:58;;;;;;;;;93.00;66.33;;;;;-3.38;85.36;100023.06;6311987;20;3653382;-50
2022/02/14 05:49:27;;;;;;;;;85.00;64.00;;;;;-3.55;85.49;100028.31;6312595;20;2893057;-49
2022/02/14 05:51:57;;;;;;;;;91.67;65.33;;;;;-3.00;85.22;100030.06;6281063;20;2914920;-51
2022/02/14 05:54:27;;;;;;;;;93.33;66.33;;;;;-3.34;84.41;100035.31;6316712;20;3651230;-49
2022/02/14 05:56:55;;;;;;;;;83.00;65.00;;;;;-3.21;83.67;100032.66;6313946;20;2502459;-52
2022/02/14 05:59:25;;;;;;;;;93.33;70.33;;;;;-3.13;83.28;100033.56;6286689;20;2901373;-50
2022/02/14 06:01:55;;;;;;;;;93.33;72.00;;;;;-3.36;83.27;100031.81;6317476;20;2888228;-52
2022/02/14 06:04:25;;;;;;;;;107.33;76.00;;;;;-3.04;81.88;100041.44;6315463;20;3665875;-53
2022/02/14 06:06:55;;;;;;;;;103.67;75.33;;;;;-3.43;82.35;100037.06;6318301;20;3667336;-54
2022/02/14 06:09:28;;;;;;;;;135.67;102.00;;;;;-3.17;82.81;100027.44;6312755;20;3706448;-52
2022/02/14 06:11:58;;;;;;;;;140.00;105.33;;;;;-2.91;82.15;100037.91;6286678;20;3704349;-49
2022/02/14 06:14:32;;;;;;;;;114.33;85.00;;;;;-3.56;83.58;100036.16;6286109;20;3689847;-48
2022/02/14 06:17:20;;;;;;;;;108.33;84.67;;;;;-2.58;81.51;100041.38;6286901;20;3667912;-49
2022/02/14 06:19:50;;;;;;;;;124.00;97.00;;;;;-3.17;83.22;100043.19;6318651;20;3708534;-51
2022/02/14 06:22:28;;;;;;;;;112.00;85.67;;;;;-2.68;81.79;100048.38;6286274;20;3685611;-48
2022/02/14 06:24:58;;;;;;;;;132.67;99.33;;;;;-2.83;82.11;100042.28;6316527;20;3706455;-51
2022/02/14 06:27:27;;;;;;;;;135.67;113.00;;;;;-2.69;82.86;100038.72;6285990;20;3711646;-49
2022/02/14 06:29:57;;;;;;;;;180.00;140.00;;;;;-2.68;82.81;100035.25;6284960;20;3706648;-48
2022/02/14 06:32:27;;;;;;;;;144.33;115.33;;;;;-2.57;82.32;100035.22;6285429;20;3720002;-53
2022/02/14 06:34:57;;;;;;;;;106.00;78.00;;;;;-2.98;84.08;100033.53;6281513;20;3668958;-53
2022/02/14 06:37:27;;;;;;;;;120.33;99.00;;;;;-2.73;83.70;100034.38;6317854;20;3706430;-48
2022/02/14 06:39:57;;;;;;;;;115.17;95.83;;;;;-2.44;82.71;100036.94;6284229;20;4463698;-50
2022/02/14 06:42:26;;;;;;;;;98.00;76.67;;;;;-2.41;82.56;100036.03;6318261;20;2900282;-51
2022/02/14 06:44:56;;;;;;;;;92.67;69.00;;;;;-2.63;82.53;100034.34;6315125;20;3656450;-53
2022/02/14 06:47:25;;;;;;;;;84.00;63.00;;;;;-2.46;82.06;100027.31;6316874;20;2872095;-51
2022/02/14 06:49:55;;;;;;;;;88.33;67.00;;;;;-1.89;81.74;100025.28;6280910;20;2896103;-49
2022/02/14 06:52:24;;;;;;;;;88.67;66.00;;;;;-0.87;76.72;100030.66;6314558;20;2909758;-52
2022/02/14 06:54:54;;;;;;;;;79.67;62.33;;;;;-1.24;77.46;100035.38;6313161;20;2886871;-55
2022/02/14 06:57:24;;;;;;;;;87.33;67.00;;;;;-0.74;76.81;100032.31;6316995;20;3655507;-53
2022/02/14 06:59:53;;;;;;;;;88.33;64.67;;;;;-0.16;75.29;100033.38;6316335;20;3665858;-54
2022/02/14 07:02:23;;;;;;;;;89.00;65.67;;;;;0.54;73.58;100028.91;6316537;20;2886933;-54
2022/02/14 07:04:59;;;;;;;;;84.00;63.33;;;;;0.18;73.82;100030.31;6314701;20;2897255;-55
2022/02/14 07:07:30;;;;;;;;;82.67;61.33;;;;;1.02;74.72;100034.28;6315655;20;3658541;-55
2022/02/14 07:10:00;;;;;;;;;84.33;64.33;;;;;1.25;74.25;100033.03;6314545;20;3637733;-54
2022/02/14 07:12:29;;;;;;;;;83.33;64.00;;;;;1.03;75.11;100035.19;6314574;20;3636658;-55
2022/02/14 07:14:59;;;;;;;;;80.00;59.33;;;;;1.22;75.55;100033.09;6314473;20;3636771;-55
2022/02/14 07:17:31;;;;;;;;;86.33;64.67;;;;;1.78;74.31;100036.41;6314448;20;3638752;-55
2022/02/14 07:20:02;;;;;;;;;78.67;59.00;;;;;1.70;73.77;100033.94;6316001;20;2878359;-54
2022/02/14 07:22:31;;;;;;;;;73.33;58.00;;;;;2.02;73.20;100027.09;6315824;20;2889907;-53
2022/02/14 07:25:01;;;;;;;;;84.33;61.00;;;;;2.37;70.54;100029.00;6310459;20;3653348;-56
2022/02/14 07:27:36;;;;;;;;;88.00;64.33;;;;;2.47;71.21;100029.63;6316102;20;3672084;-57
2022/02/14 07:30:12;;;;;;;;;80.67;62.00;;;;;2.90;69.99;100025.06;6277494;20;3637769;-55
2022/02/14 07:32:42;;;;;;;;;81.67;59.00;;;;;2.90;69.77;100033.03;6316917;20;3650328;-54
2022/02/14 07:35:13;;;;;;;;;83.67;65.00;;;;;2.22;71.80;100024.03;6314148;20;3627338;-56
2022/02/14 07:37:44;;;;;;;;;86.33;63.00;;;;;2.22;72.68;100024.03;6314587;20;3657537;-48
2022/02/14 07:40:16;;;;;;;;;83.00;61.00;;;;;2.15;73.89;100022.41;6314676;20;3655465;-50
2022/02/14 07:42:52;;;;;;;;;83.67;63.33;;;;;1.35;75.74;100021.38;6280294;20;2896076;-46
2022/02/14 07:45:23;;;;;;;;;83.00;61.67;;;;;1.02;78.37;100015.78;6314908;20;3638779;-45
2022/02/14 07:47:52;;;;;;;;;84.67;64.00;;;;;1.31;78.34;100007.31;6314779;20;3650234;-49
2022/02/14 07:50:27;;;;;;;;;81.33;58.00;;;;;1.50;78.51;100018.47;6313885;20;3654544;-48
2022/02/14 07:52:56;;;;;;;;;71.33;58.00;;;;;1.49;77.26;100011.41;6315563;20;2876304;-48
2022/02/14 07:55:26;;;;;;;;;78.00;60.67;;;;;1.71;77.95;100016.25;6314166;20;2887751;-47
2022/02/14 07:57:55;;;;;;;;;70.50;54.00;;;;;1.92;78.37;100020.25;6314780;20;2879553;-46
2022/02/14 08:00:25;;;;;;;;;69.67;57.67;;;;;2.06;78.25;100009.38;6284585;20;2874269;-46
2022/02/14 08:02:53;;;;;;;;;65.50;51.00;;;;;2.28;76.29;100010.63;6311517;20;2498219;-45
2022/02/14 08:05:21;;;;;;;;;68.00;54.00;;;;;2.35;76.83;100019.34;6277722;20;2500284;-45
2022/02/14 08:07:50;;;;;;;;;66.00;51.00;;;;;2.40;76.48;100020.97;6283149;20;2877537;-46
2022/02/14 08:10:40;;;;;;;;;67.67;53.67;;;;;2.67;74.95;100025.66;6312459;20;2880516;-45
2022/02/14 08:13:09;;;;;;;;;64.00;50.50;;;;;2.15;76.51;100022.41;6316120;20;2874224;-48
2022/02/14 08:15:38;;;;;;;;;64.00;52.50;;;;;2.67;75.42;100029.19;6281471;20;2854451;-48
2022/02/14 08:18:09;;;;;;;;;62.50;49.00;;;;;2.82;74.56;100023.50;6284464;20;2854417;-45
2022/02/14 08:20:38;;;;;;;;;64.00;49.00;;;;;2.86;75.20;100027.81;6280850;20;2498280;-45
2022/02/14 08:23:07;;;;;;;;;64.50;49.50;;;;;2.96;74.63;100025.81;6282214;20;2857670;-48
2022/02/14 08:25:36;;;;;;;;;61.50;49.00;;;;;3.00;74.25;100023.94;6281330;20;2869158;-44
2022/02/14 08:28:07;;;;;;;;;69.67;51.00;;;;;2.99;75.39;100023.09;6284672;20;2868986;-45
2022/02/14 08:30:36;;;;;;;;;63.00;49.00;;;;;3.32;73.76;100022.25;6317926;20;2854423;-52
2022/02/14 08:33:10;;;;;;;;;60.00;49.00;;;;;2.94;75.19;100014.38;6287925;20;2855620;-47
2022/02/14 08:35:39;;;;;;;;;59.00;51.00;;;;;3.64;73.08;100019.59;6287659;20;2850254;-46
2022/02/14 08:38:08;;;;;;;;;68.00;50.50;;;;;3.04;75.32;100015.00;6288943;20;2855491;-47
2022/02/14 08:40:38;;;;;;;;;58.00;47.50;;;;;3.57;73.11;100014.50;6289790;20;2855481;-46
2022/02/14 08:43:07;;;;;;;;;67.50;50.50;;;;;3.37;73.50;100013.28;6289226;20;2863832;-47
2022/02/14 08:45:59;;;;;;;;;69.67;50.67;;;;;3.22;74.83;100016.31;6287836;20;2871149;-46
2022/02/14 08:48:27;;;;;;;;;65.00;49.00;;;;;3.39;74.17;100006.13;6319780;20;2872145;-49
2022/02/14 08:50:57;;;;;;;;;62.00;48.00;;;;;4.04;73.31;100006.97;6283328;20;2872116;-46
2022/02/14 08:53:25;;;;;;;;;65.50;49.50;;;;;3.83;73.29;100001.34;6227536;20;2487952;-47
2022/02/14 08:55:55;;;;;;;;;67.67;49.67;;;;;3.80;73.47;100001.44;6286453;20;2871319;-46
2022/02/14 08:58:25;;;;;;;;;65.00;50.50;;;;;3.88;72.79;99993.25;6320275;20;2869039;-48
2022/02/14 09:00:54;;;;;;;;;57.50;45.00;;;;;4.36;71.30;99998.00;6288111;20;2869083;-47
2022/02/14 09:03:24;;;;;;;;;65.00;48.67;;;;;4.58;70.95;99991.09;6287588;20;2880518;-48
2022/02/14 09:05:52;;;;;;;;;66.00;51.00;;;;;4.03;71.57;99991.91;6317314;20;2498235;-46
2022/02/14 09:08:24;;;;;;;;;61.50;50.50;;;;;3.55;72.37;99990.63;6288910;20;2855502;-45
2022/02/14 09:10:59;;;;;;;;;66.00;47.00;;;;;4.00;72.43;99987.56;6284470;20;3631546;-45
2022/02/14 09:13:32;;;;;;;;;66.00;48.00;;;;;4.57;71.04;99984.03;6319147;20;2867684;-47
2022/02/14 09:16:04;;;;;;;;;68.00;50.33;;;;;4.30;71.75;99983.13;6287239;20;2883802;-44
2022/02/14 09:18:38;;;;;;;;;56.50;47.00;;;;;4.43;71.23;99980.94;6318082;20;2499300;-45
2022/02/14 09:21:07;;;;;;;;;60.00;46.00;;;;;4.75;70.71;99974.56;6288012;20;2738804;-49
2022/02/14 09:23:36;;;;;;;;;56.50;47.00;;;;;4.76;70.90;99970.97;6315786;20;2500305;-45
2022/02/14 09:26:05;;;;;;;;;70.67;52.00;;;;;4.58;71.28;99968.94;6284515;20;2496177;-45
2022/02/14 09:28:35;;;;;;;;;51.50;42.50;;;;;5.24;69.20;99972.06;6319278;20;2844107;-55
2022/02/14 09:31:05;;;;;;;;;67.00;50.00;;;;;4.42;71.13;99968.56;6286363;20;2876839;-55
2022/02/14 09:33:34;;;;;;;;;65.00;49.33;;;;;5.26;70.06;99956.88;6316313;20;3632661;-55
2022/02/14 09:36:04;;;;;;;;;62.33;48.00;;;;;5.62;69.01;99953.81;6318109;20;3627352;-53
2022/02/14 09:38:33;;;;;;;;;62.00;49.00;;;;;5.22;68.64;99950.78;6314792;20;2873211;-54
2022/02/14 09:41:02;;;;;;;;;63.00;50.00;;;;;5.52;68.92;99947.94;6286576;20;2860022;-55
2022/02/14 09:43:35;;;;;;;;;64.00;49.00;;;;;5.32;68.92;99945.13;6284388;20;2870158;-52
2022/02/14 09:46:05;;;;;;;;;68.33;54.00;;;;;5.97;67.54;99943.66;6316013;20;2875285;-55
2022/02/14 09:48:37;;;;;;;;;62.00;48.33;;;;;6.06;67.03;99943.31;6315428;20;3625299;-56
2022/02/14 09:51:08;;;;;;;;;65.67;50.00;;;;;6.02;66.33;99947.00;6314290;20;2881589;-56
2022/02/14 09:53:41;;;;;;;;;63.67;49.00;;;;;5.80;67.44;99936.28;6316534;20;3625249;-54
2022/02/14 09:56:12;;;;;;;;;62.00;51.33;;;;;5.84;67.61;99932.56;6318720;20;2879509;-44
2022/02/14 09:58:42;;;;;;;;;56.67;47.00;;;;;5.72;67.70;99933.91;6316286;20;3609744;-44
2022/02/14 10:01:12;;;;;;;;;61.33;46.00;;;;;6.94;66.31;99940.59;6314718;20;3619550;-55
2022/02/14 10:04:00;;;;;;;;;60.33;51.00;;;;;7.13;64.81;99938.84;6316427;20;2864829;-54
2022/02/14 10:06:34;;;;;;;;;60.00;46.67;;;;;6.78;64.66;99941.25;6315813;20;3616924;-54
2022/02/14 10:09:09;;;;;;;;;58.33;42.67;;;;;7.03;63.76;99932.22;6318996;20;3610722;-55
2022/02/14 10:11:59;;;;;;;;;59.00;47.00;;;;;7.11;63.58;99930.06;6314654;20;2861727;-54
2022/02/14 10:14:30;;;;;;;;;60.67;47.00;;;;;6.43;65.27;99923.19;6316069;20;2867017;-55
2022/02/14 10:17:07;;;;;;;;;59.00;47.50;;;;;6.38;65.58;99916.22;6316328;20;2861686;-53
2022/02/14 10:19:59;;;;;;;;;62.00;49.33;;;;;6.53;64.99;99916.50;6285671;20;3658556;-53
2022/02/14 10:22:28;;;;;;;;;58.00;43.50;;;;;6.84;64.81;99909.91;6317254;20;2853403;-55
2022/02/14 10:24:58;;;;;;;;;64.00;51.00;;;;;7.06;64.60;99909.81;6285384;20;2874253;-51
2022/02/14 10:27:37;;;;;;;;;58.50;47.50;;;;;7.18;63.80;99910.16;6312598;20;2500254;-52
2022/02/14 10:30:10;;;;;;;;;56.67;44.67;;;;;7.36;64.07;99900.47;6284493;20;3608599;-54
2022/02/14 10:32:52;;;;;;;;;57.00;44.00;;;;;7.91;61.39;99894.38;6314245;20;2874402;-43
2022/02/14 10:35:24;;;;;;;;;66.00;50.00;;;;;7.58;62.56;99894.16;6316324;20;3634594;-42
2022/02/14 10:37:54;;;;;;;;;60.33;48.00;;;;;7.86;61.43;99886.56;6315451;20;3607545;-47
2022/02/14 10:40:53;;;;;;;;;63.67;47.33;;;;;7.93;61.72;99876.47;6318066;20;2878406;-47
2022/02/14 10:43:27;;;;;;;;;61.33;48.00;;;;;8.04;61.73;99879.50;6316717;20;2872194;-45
2022/02/14 10:45:57;;;;;;;;;59.00;46.33;;;;;8.00;60.80;99879.72;6315963;20;2871264;-52
2022/02/14 10:48:40;;;;;;;;;59.33;47.33;;;;;7.85;61.77;99874.16;6317652;20;3608540;-50
2022/02/14 10:51:18;;;;;;;;;56.67;44.33;;;;;7.56;62.52;99872.84;6312109;20;2875275;-46
2022/02/14 10:53:51;;;;;;;;;58.67;48.00;;;;;8.32;61.08;99868.31;6315265;20;2857592;-48
2022/02/14 10:56:23;;;;;;;;;62.00;46.33;;;;;8.33;60.34;99866.50;6317440;20;3627300;-46
2022/02/14 10:59:17;;;;;;;;;64.00;50.00;;;;;8.45;60.91;99870.41;6315829;20;3623169;-47
2022/02/14 11:01:47;;;;;;;;;78.00;58.00;;;;;8.74;60.57;99860.91;6317096;20;3633601;-45
2022/02/14 11:04:16;;;;;;;;;54.00;44.50;;;;;8.81;59.11;99865.00;6313743;20;2857673;-55
2022/02/14 11:06:46;;;;;;;;;54.50;43.00;;;;;8.65;60.36;99858.72;6284800;20;2852382;-54
2022/02/14 11:09:17;;;;;;;;;56.00;46.00;;;;;8.42;61.16;99857.19;6285157;20;2851347;-55
2022/02/14 11:11:50;;;;;;;;;56.00;46.00;;;;;8.87;59.63;99862.00;6282399;20;2855507;-52